Time;durP1;ratioP1;P1;durP2;ratioP2;P2;SDS_P1;SDS_P2;PMS_P1;PMS_P2;Temp;Humidity;BMP_temperature;BMP_pressure;BME280_temperature;BME280_humidity;BME280_pressure;Samples;Min_cycle;Max_cycle;Signal;HPM_P1;HPM_P2
2021/07/09 00:01:30;;;;;;;9.43;8.43;;;;;;;;;;6246181;23;20005;-59
2021/07/09 00:03:56;;;;;;;8.98;8.13;;;;;;;;;;6245953;23;20000;-59
2021/07/09 00:06:23;;;;;;;9.95;8.88;;;;;;;;;;6245969;23;20008;-59
2021/07/09 00:08:49;;;;;;;9.73;8.82;;;;;;;;;;6245813;23;20055;-59
2021/07/09 00:11:15;;;;;;;11.73;9.20;;;;;;;;;;6219018;23;20001;-59
2021/07/09 00:13:41;;;;;;;9.57;8.50;;;;;;;;;;6245416;23;20008;-59
2021/07/09 00:16:07;;;;;;;9.68;8.82;;;;;;;;;;6245890;23;20004;-59
2021/07/09 00:18:32;;;;;;;9.82;8.93;;;;;;;;;;6246307;23;20011;-59
2021/07/09 00:20:58;;;;;;;11.65;9.32;;;;;;;;;;6246271;23;20036;-59
2021/07/09 00:23:24;;;;;;;9.80;8.90;;;;;;;;;;6245924;23;20527;-59
2021/07/09 00:25:49;;;;;;;9.85;8.77;;;;;;;;;;6245970;23;20012;-58
2021/07/09 00:28:14;;;;;;;8.93;8.02;;;;;;;;;;6218889;23;20011;-58
2021/07/09 00:30:40;;;;;;;11.35;9.45;;;;;;;;;;6245234;23;20000;-59
2021/07/09 00:33:06;;;;;;;11.75;9.65;;;;;;;;;;6245708;23;20004;-58
2021/07/09 00:35:31;;;;;;;11.63;9.38;;;;;;;;;;6245727;23;20000;-58
2021/07/09 00:37:57;;;;;;;11.60;9.77;;;;;;;;;;6245823;23;20443;-58
2021/07/09 00:40:24;;;;;;;9.18;8.35;;;;;;;;;;6245851;23;20011;-58
2021/07/09 00:42:54;;;;;;;9.65;8.65;;;;;;;;;;6245911;23;20011;-59
2021/07/09 00:45:19;;;;;;;12.37;10.67;;;;;;;;;;6246493;23;20012;-59
2021/07/09 00:47:46;;;;;;;11.48;10.20;;;;;;;;;;6247690;23;20624;-58
2021/07/09 00:50:12;;;;;;;13.60;11.20;;;;;;;;;;6247412;23;20000;-59
2021/07/09 00:52:37;;;;;;;12.45;11.07;;;;;;;;;;6247871;23;20316;-59
2021/07/09 00:55:04;;;;;;;14.27;12.23;;;;;;;;;;6247929;23;20007;-59
2021/07/09 00:57:29;;;;;;;14.68;12.60;;;;;;;;;;6247774;23;20023;-59
2021/07/09 00:59:55;;;;;;;11.95;10.68;;;;;;;;;;6247581;23;20008;-59
2021/07/09 01:02:23;;;;;;;13.45;12.02;;;;;;;;;;6221158;23;20008;-59
2021/07/09 01:04:49;;;;;;;14.50;11.95;;;;;;;;;;6247514;23;20011;-59
2021/07/09 01:07:16;;;;;;;14.55;13.05;;;;;;;;;;6247878;23;20004;-59
2021/07/09 01:09:42;;;;;;;13.93;12.45;;;;;;;;;;6247690;23;20004;-59
2021/07/09 01:12:08;;;;;;;15.70;12.95;;;;;;;;;;6247502;23;20019;-59
2021/07/09 01:14:34;;;;;;;13.32;11.90;;;;;;;;;;6247173;23;20445;-59
2021/07/09 01:16:59;;;;;;;13.65;12.35;;;;;;;;;;6247472;23;20006;-59
2021/07/09 01:19:26;;;;;;;14.55;12.52;;;;;;;;;;6247442;23;20008;-59
2021/07/09 01:21:51;;;;;;;14.40;12.40;;;;;;;;;;6247132;23;20478;-59
2021/07/09 01:24:17;;;;;;;13.52;12.23;;;;;;;;;;6247078;23;20087;-59
2021/07/09 01:26:43;;;;;;;13.65;12.23;;;;;;;;;;6246942;23;19996;-59
2021/07/09 01:29:09;;;;;;;14.18;12.88;;;;;;;;;;6220358;23;20040;-59
2021/07/09 01:31:36;;;;;;;13.38;11.95;;;;;;;;;;6247404;23;20000;-59
2021/07/09 01:34:02;;;;;;;12.05;10.95;;;;;;;;;;6247160;23;20087;-59
2021/07/09 01:36:28;;;;;;;12.77;11.45;;;;;;;;;;6247047;23;19996;-58
2021/07/09 01:38:54;;;;;;;12.13;11.05;;;;;;;;;;6247345;23;20031;-60
2021/07/09 01:41:20;;;;;;;12.80;11.50;;;;;;;;;;6247077;23;20405;-59
2021/07/09 01:43:46;;;;;;;12.55;10.90;;;;;;;;;;6220204;23;20008;-59
2021/07/09 01:46:11;;;;;;;12.43;11.20;;;;;;;;;;6247697;23;20305;-59
2021/07/09 01:48:37;;;;;;;13.05;11.85;;;;;;;;;;6247041;23;20004;-58
2021/07/09 01:51:03;;;;;;;10.68;9.63;;;;;;;;;;6220495;23;20305;-59
2021/07/09 01:53:28;;;;;;;12.57;10.35;;;;;;;;;;6220379;23;20075;-59
2021/07/09 01:55:54;;;;;;;11.45;10.35;;;;;;;;;;6246914;23;20082;-59
2021/07/09 01:58:19;;;;;;;12.65;11.18;;;;;;;;;;6246541;23;20008;-59
2021/07/09 02:00:45;;;;;;;12.25;11.07;;;;;;;;;;6246971;23;20082;-58
2021/07/09 02:03:11;;;;;;;12.18;10.90;;;;;;;;;;6246994;23;20008;-58
2021/07/09 02:05:36;;;;;;;12.07;10.82;;;;;;;;;;6246795;23;20050;-58
2021/07/09 02:08:02;;;;;;;12.73;10.75;;;;;;;;;;6246822;23;20008;-58
2021/07/09 02:10:29;;;;;;;12.02;10.93;;;;;;;;;;6246873;23;20000;-58
2021/07/09 02:12:55;;;;;;;12.45;11.38;;;;;;;;;;6246372;23;20032;-58
2021/07/09 02:15:23;;;;;;;12.05;10.95;;;;;;;;;;6246680;23;20139;-58
2021/07/09 02:17:49;;;;;;;13.82;11.40;;;;;;;;;;6247075;23;20008;-58
2021/07/09 02:20:17;;;;;;;14.95;11.52;;;;;;;;;;6219807;23;20083;-58
2021/07/09 02:22:42;;;;;;;10.90;10.00;;;;;;;;;;6246867;23;20058;-58
2021/07/09 02:25:09;;;;;;;11.70;10.13;;;;;;;;;;6246397;23;20122;-59
2021/07/09 02:27:35;;;;;;;11.98;10.68;;;;;;;;;;6246812;23;20388;-59
2021/07/09 02:30:03;;;;;;;13.77;11.50;;;;;;;;;;6246636;23;20011;-58
2021/07/09 02:32:28;;;;;;;11.95;10.75;;;;;;;;;;6247310;23;20000;-59
2021/07/09 02:34:54;;;;;;;12.85;11.65;;;;;;;;;;6247239;23;20003;-59
2021/07/09 02:37:20;;;;;;;13.07;11.32;;;;;;;;;;6247410;23;20000;-59
2021/07/09 02:39:46;;;;;;;12.63;11.32;;;;;;;;;;6246920;23;20023;-59
2021/07/09 02:42:11;;;;;;;12.43;11.27;;;;;;;;;;6246271;23;20008;-59
2021/07/09 02:44:37;;;;;;;11.05;9.95;;;;;;;;;;6219935;23;20011;-58
2021/07/09 02:47:03;;;;;;;11.68;10.57;;;;;;;;;;6246895;23;20141;-59
2021/07/09 02:49:28;;;;;;;11.35;10.20;;;;;;;;;;6246410;23;20054;-58
2021/07/09 02:51:54;;;;;;;10.10;9.32;;;;;;;;;;6246542;23;20447;-58
2021/07/09 02:54:21;;;;;;;10.70;9.73;;;;;;;;;;6246495;23;20470;-59
2021/07/09 02:56:47;;;;;;;10.70;9.65;;;;;;;;;;6246525;23;20000;-59
2021/07/09 02:59:13;;;;;;;12.10;10.90;;;;;;;;;;6246124;23;20023;-59
2021/07/09 03:01:41;;;;;;;12.10;11.00;;;;;;;;;;6219447;23;20004;-59
2021/07/09 03:04:10;;;;;;;11.38;10.48;;;;;;;;;;6246815;23;20031;-59
2021/07/09 03:06:36;;;;;;;11.83;10.60;;;;;;;;;;6246285;23;20008;-59
2021/07/09 03:09:02;;;;;;;11.57;10.00;;;;;;;;;;6245864;23;20007;-58
2021/07/09 03:11:28;;;;;;;11.55;10.43;;;;;;;;;;6245907;23;20010;-59
2021/07/09 03:13:53;;;;;;;16.15;10.10;;;;;;;;;;6245454;23;20086;-59
2021/07/09 03:16:19;;;;;;;10.65;9.63;;;;;;;;;;6246341;23;20004;-59
2021/07/09 03:18:44;;;;;;;12.13;10.45;;;;;;;;;;6246096;23;20016;-59
2021/07/09 03:21:10;;;;;;;13.48;10.07;;;;;;;;;;6245954;23;20039;-59
2021/07/09 03:23:36;;;;;;;11.35;10.25;;;;;;;;;;6246107;23;20075;-59
2021/07/09 03:26:03;;;;;;;10.70;9.68;;;;;;;;;;6246042;23;20011;-59
2021/07/09 03:28:28;;;;;;;11.82;9.82;;;;;;;;;;6246013;23;20035;-59
2021/07/09 03:30:54;;;;;;;11.52;9.98;;;;;;;;;;6246186;23;20004;-59
2021/07/09 03:33:19;;;;;;;11.15;9.80;;;;;;;;;;6246309;23;19996;-59
2021/07/09 03:35:45;;;;;;;11.73;10.43;;;;;;;;;;6246184;23;20004;-59
2021/07/09 03:38:10;;;;;;;12.20;11.00;;;;;;;;;;6245923;23;20071;-59
2021/07/09 03:40:36;;;;;;;11.98;10.88;;;;;;;;;;6245840;23;20028;-59
2021/07/09 03:43:02;;;;;;;12.07;10.73;;;;;;;;;;6245680;23;20472;-59
2021/07/09 03:45:27;;;;;;;14.25;10.55;;;;;;;;;;6219032;23;20031;-59
2021/07/09 03:47:53;;;;;;;12.57;10.15;;;;;;;;;;6245413;23;20032;-58
2021/07/09 03:50:18;;;;;;;12.60;11.32;;;;;;;;;;6245628;23;20004;-58
2021/07/09 03:52:43;;;;;;;11.13;10.07;;;;;;;;;;6246617;23;20015;-59
2021/07/09 03:55:09;;;;;;;14.45;10.52;;;;;;;;;;6246362;23;20363;-58
2021/07/09 03:57:35;;;;;;;10.95;9.95;;;;;;;;;;6245912;23;19996;-58
2021/07/09 04:00:03;;;;;;;12.18;10.85;;;;;;;;;;6246048;23;20004;-59
2021/07/09 04:02:38;;;;;;;10.57;9.65;;;;;;;;;;6245583;23;20282;-58
2021/07/09 04:05:04;;;;;;;13.52;9.98;;;;;;;;;;6245519;23;20134;-59
2021/07/09 04:07:30;;;;;;;14.65;10.35;;;;;;;;;;6246267;23;20336;-59
2021/07/09 04:09:55;;;;;;;11.00;9.40;;;;;;;;;;6245560;23;20011;-59
2021/07/09 04:12:21;;;;;;;10.48;9.43;;;;;;;;;;6246324;23;20074;-60
2021/07/09 04:14:47;;;;;;;10.73;9.73;;;;;;;;;;6245941;23;20036;-59
2021/07/09 04:17:12;;;;;;;10.65;9.77;;;;;;;;;;6246342;23;20079;-59
2021/07/09 04:19:38;;;;;;;10.55;9.50;;;;;;;;;;6246246;23;20032;-59
2021/07/09 04:22:03;;;;;;;10.13;9.02;;;;;;;;;;6248187;23;20083;-59
2021/07/09 04:24:29;;;;;;;10.15;9.07;;;;;;;;;;6247152;23;20008;-59
2021/07/09 04:26:54;;;;;;;10.00;9.20;;;;;;;;;;6247829;23;20015;-59
2021/07/09 04:29:20;;;;;;;10.63;9.60;;;;;;;;;;6247714;23;20015;-60
2021/07/09 04:31:45;;;;;;;11.13;9.95;;;;;;;;;;6247617;23;20011;-59
2021/07/09 04:34:11;;;;;;;11.50;9.40;;;;;;;;;;6247476;23;20000;-59
2021/07/09 04:36:36;;;;;;;9.95;8.82;;;;;;;;;;6247381;23;20412;-59
2021/07/09 04:39:02;;;;;;;10.38;9.38;;;;;;;;;;6247517;23;20490;-59
2021/07/09 04:41:28;;;;;;;10.27;9.18;;;;;;;;;;6247501;23;20008;-59
2021/07/09 04:43:53;;;;;;;10.55;9.50;;;;;;;;;;6247365;23;20014;-60
2021/07/09 04:46:19;;;;;;;13.40;9.57;;;;;;;;;;6247512;23;19996;-59
2021/07/09 04:48:44;;;;;;;10.02;9.20;;;;;;;;;;6247176;23;20027;-60
2021/07/09 04:51:10;;;;;;;11.85;8.98;;;;;;;;;;6247314;23;20076;-60
2021/07/09 04:53:35;;;;;;;10.35;9.00;;;;;;;;;;6247227;23;20057;-59
2021/07/09 04:56:01;;;;;;;9.60;8.73;;;;;;;;;;6247189;23;20075;-60
2021/07/09 04:58:26;;;;;;;10.52;9.10;;;;;;;;;;6247354;23;20056;-59
2021/07/09 05:00:52;;;;;;;9.85;8.90;;;;;;;;;;6247367;23;20000;-59
2021/07/09 05:03:17;;;;;;;12.27;9.50;;;;;;;;;;6247211;23;20030;-60
2021/07/09 05:05:42;;;;;;;13.15;9.35;;;;;;;;;;6247113;23;19996;-60
2021/07/09 05:08:08;;;;;;;10.95;9.30;;;;;;;;;;6247125;23;20012;-60
2021/07/09 05:10:33;;;;;;;10.27;9.27;;;;;;;;;;6247170;23;19996;-59
2021/07/09 05:12:59;;;;;;;11.90;9.68;;;;;;;;;;6246801;23;20004;-60
2021/07/09 05:15:25;;;;;;;10.75;9.68;;;;;;;;;;6247264;23;20376;-60
2021/07/09 05:17:50;;;;;;;12.05;9.23;;;;;;;;;;6247033;23;20340;-60
2021/07/09 05:20:16;;;;;;;12.45;9.27;;;;;;;;;;6220201;23;20004;-60
2021/07/09 05:22:41;;;;;;;10.70;9.00;;;;;;;;;;6246981;23;20027;-60
2021/07/09 05:25:07;;;;;;;10.65;9.65;;;;;;;;;;6246901;23;19996;-59
2021/07/09 05:27:33;;;;;;;10.55;9.57;;;;;;;;;;6246764;23;20008;-59
2021/07/09 05:29:58;;;;;;;10.93;9.73;;;;;;;;;;6246998;23;19992;-60
2021/07/09 05:32:25;;;;;;;10.57;9.57;;;;;;;;;;6246548;23;20405;-60
2021/07/09 05:34:51;;;;;;;9.98;9.07;;;;;;;;;;6246811;23;20024;-60
2021/07/09 05:37:17;;;;;;;9.82;8.75;;;;;;;;;;6246857;23;20436;-59
2021/07/09 05:39:42;;;;;;;10.30;9.38;;;;;;;;;;6246775;23;20000;-60
2021/07/09 05:42:08;;;;;;;9.43;8.63;;;;;;;;;;6219917;23;20141;-60
2021/07/09 05:44:33;;;;;;;11.20;10.20;;;;;;;;;;6246887;23;20003;-60
2021/07/09 05:46:59;;;;;;;10.68;9.57;;;;;;;;;;6246983;23;20015;-60
2021/07/09 05:49:24;;;;;;;10.02;9.10;;;;;;;;;;6246574;23;20325;-60
2021/07/09 05:51:50;;;;;;;8.82;8.07;;;;;;;;;;6246705;23;20079;-60
2021/07/09 05:54:15;;;;;;;9.68;8.85;;;;;;;;;;6246738;23;19996;-59
2021/07/09 05:56:41;;;;;;;10.00;9.00;;;;;;;;;;6246509;23;20000;-60
2021/07/09 05:59:06;;;;;;;9.48;8.57;;;;;;;;;;6246628;23;20083;-59
2021/07/09 06:01:32;;;;;;;10.13;9.07;;;;;;;;;;6220044;23;20031;-60
2021/07/09 06:03:57;;;;;;;10.38;9.10;;;;;;;;;;6246691;23;20000;-60
2021/07/09 06:06:23;;;;;;;9.50;8.63;;;;;;;;;;6246751;23;20416;-59
2021/07/09 06:08:48;;;;;;;11.60;10.18;;;;;;;;;;6246361;23;20022;-60
2021/07/09 06:11:14;;;;;;;10.98;9.98;;;;;;;;;;6246523;23;20011;-59
2021/07/09 06:13:39;;;;;;;11.02;10.00;;;;;;;;;;6245882;23;20032;-59
2021/07/09 06:16:05;;;;;;;11.23;10.13;;;;;;;;;;6246620;23;20015;-59
2021/07/09 06:18:31;;;;;;;11.45;9.95;;;;;;;;;;6246501;23;20050;-59
2021/07/09 06:20:57;;;;;;;13.15;11.35;;;;;;;;;;6246520;23;20054;-59
2021/07/09 06:23:24;;;;;;;13.25;10.65;;;;;;;;;;6246381;23;20000;-59
2021/07/09 06:25:51;;;;;;;12.13;10.52;;;;;;;;;;6246436;23;20008;-59
2021/07/09 06:28:16;;;;;;;12.30;11.18;;;;;;;;;;6246483;23;20360;-59
2021/07/09 06:30:41;;;;;;;12.32;10.90;;;;;;;;;;6219539;23;20007;-59
2021/07/09 06:33:08;;;;;;;12.00;10.77;;;;;;;;;;6246400;23;19996;-59
2021/07/09 06:35:35;;;;;;;11.20;10.00;;;;;;;;;;6246286;23;20015;-59
2021/07/09 06:38:01;;;;;;;10.90;9.57;;;;;;;;;;6246156;23;20004;-59
2021/07/09 06:40:27;;;;;;;11.05;10.15;;;;;;;;;;6246394;23;20004;-59
2021/07/09 06:42:53;;;;;;;10.75;9.75;;;;;;;;;;6246151;23;20478;-59
2021/07/09 06:45:19;;;;;;;9.85;8.88;;;;;;;;;;6246316;23;20008;-59
2021/07/09 06:47:44;;;;;;;9.70;8.88;;;;;;;;;;6219485;23;20011;-59
2021/07/09 06:50:10;;;;;;;11.15;9.15;;;;;;;;;;6219250;23;20083;-59
2021/07/09 06:52:35;;;;;;;10.05;9.05;;;;;;;;;;6245937;23;19999;-59
2021/07/09 06:55:01;;;;;;;9.85;9.02;;;;;;;;;;6219291;23;20069;-59
2021/07/09 06:57:27;;;;;;;10.55;9.40;;;;;;;;;;6246169;23;20003;-59
2021/07/09 06:59:52;;;;;;;11.40;10.38;;;;;;;;;;6246122;23;20111;-59
2021/07/09 07:02:19;;;;;;;12.82;11.00;;;;;;;;;;6219386;23;20000;-59
2021/07/09 07:04:45;;;;;;;10.98;9.88;;;;;;;;;;6246098;23;20008;-59
2021/07/09 07:07:10;;;;;;;12.55;11.10;;;;;;;;;;6245961;23;20178;-59
2021/07/09 07:09:38;;;;;;;17.73;12.77;;;;;;;;;;6246041;23;20012;-59
2021/07/09 07:12:05;;;;;;;13.45;11.80;;;;;;;;;;6246102;23;20000;-59
2021/07/09 07:14:31;;;;;;;12.93;11.32;;;;;;;;;;6245333;23;20015;-59
2021/07/09 07:16:56;;;;;;;12.43;10.82;;;;;;;;;;6246048;23;20000;-59
2021/07/09 07:19:21;;;;;;;12.07;10.98;;;;;;;;;;6245983;23;20501;-59
2021/07/09 07:21:47;;;;;;;16.58;14.15;;;;;;;;;;6245991;23;20000;-59
2021/07/09 07:24:12;;;;;;;16.90;14.25;;;;;;;;;;6219052;23;20015;-59
2021/07/09 07:26:38;;;;;;;19.48;15.48;;;;;;;;;;6245910;23;19996;-59
2021/07/09 07:29:03;;;;;;;16.15;13.60;;;;;;;;;;6245817;23;20004;-59
2021/07/09 07:31:29;;;;;;;16.30;12.57;;;;;;;;;;6245859;23;20413;-59
2021/07/09 07:33:54;;;;;;;14.20;12.90;;;;;;;;;;6245990;23;20011;-59
2021/07/09 07:36:19;;;;;;;11.95;9.93;;;;;;;;;;6245853;23;20135;-59
2021/07/09 07:38:45;;;;;;;13.75;12.23;;;;;;;;;;6245847;23;20424;-59
2021/07/09 07:41:11;;;;;;;13.77;12.38;;;;;;;;;;6245876;23;20000;-59
2021/07/09 07:43:36;;;;;;;13.70;12.50;;;;;;;;;;6245688;23;20014;-59
2021/07/09 07:46:03;;;;;;;14.52;13.02;;;;;;;;;;6245642;23;20003;-59
2021/07/09 07:48:28;;;;;;;14.77;13.30;;;;;;;;;;6245541;23;20012;-59
2021/07/09 07:50:54;;;;;;;19.30;13.65;;;;;;;;;;6194050;23;19999;-59
2021/07/09 07:53:19;;;;;;;14.38;12.93;;;;;;;;;;6245747;23;20424;-59
2021/07/09 07:55:45;;;;;;;15.48;12.23;;;;;;;;;;6246919;23;20375;-59
2021/07/09 07:58:11;;;;;;;13.70;12.32;;;;;;;;;;6195959;23;20008;-59
2021/07/09 08:00:36;;;;;;;13.30;12.05;;;;;;;;;;6247696;23;20413;-59
2021/07/09 08:03:02;;;;;;;19.98;13.38;;;;;;;;;;6247765;23;20040;-59
2021/07/09 08:05:27;;;;;;;15.63;13.32;;;;;;;;;;6247739;23;20000;-59
2021/07/09 08:07:54;;;;;;;15.57;13.38;;;;;;;;;;6247643;23;20012;-59
2021/07/09 08:10:19;;;;;;;14.68;13.10;;;;;;;;;;6247786;23;19992;-59
2021/07/09 08:12:44;;;;;;;16.13;13.52;;;;;;;;;;6247649;23;20015;-59
2021/07/09 08:15:10;;;;;;;14.32;13.02;;;;;;;;;;6247457;23;20032;-59
2021/07/09 08:17:35;;;;;;;14.85;13.52;;;;;;;;;;6220832;23;20015;-59
2021/07/09 08:20:01;;;;;;;14.63;13.13;;;;;;;;;;6247667;23;20404;-59
2021/07/09 08:22:26;;;;;;;15.00;13.02;;;;;;;;;;6247668;23;20000;-59
2021/07/09 08:24:52;;;;;;;15.25;13.32;;;;;;;;;;6247559;23;19996;-59
2021/07/09 08:27:17;;;;;;;15.93;14.18;;;;;;;;;;6247537;23;20011;-59
2021/07/09 08:29:42;;;;;;;15.93;14.32;;;;;;;;;;6247454;23;19996;-59
2021/07/09 08:32:08;;;;;;;14.70;13.30;;;;;;;;;;6247537;23;20000;-59
2021/07/09 08:34:34;;;;;;;15.48;13.25;;;;;;;;;;6247561;23;20367;-59
2021/07/09 08:37:00;;;;;;;15.10;13.75;;;;;;;;;;6247517;23;20012;-59
2021/07/09 08:39:25;;;;;;;14.75;13.02;;;;;;;;;;6247342;23;20007;-59
2021/07/09 08:41:55;;;;;;;15.98;13.05;;;;;;;;;;6247609;23;20008;-59
2021/07/09 08:44:21;;;;;;;14.73;12.38;;;;;;;;;;6247424;23;20004;-59
2021/07/09 08:46:47;;;;;;;14.82;13.13;;;;;;;;;;6220649;23;20446;-59
2021/07/09 08:49:14;;;;;;;14.23;12.73;;;;;;;;;;6247201;23;20309;-59
2021/07/09 08:51:40;;;;;;;14.32;12.75;;;;;;;;;;6247386;23;20050;-59
2021/07/09 08:54:10;;;;;;;15.02;13.55;;;;;;;;;;6247200;23;20095;-59
2021/07/09 08:56:35;;;;;;;13.57;12.38;;;;;;;;;;6220343;23;20004;-59
2021/07/09 08:59:01;;;;;;;14.95;13.45;;;;;;;;;;6220563;23;20486;-59
2021/07/09 09:01:26;;;;;;;16.02;14.35;;;;;;;;;;6247288;23;20011;-59
2021/07/09 09:04:05;;;;;;;14.43;12.45;;;;;;;;;;6247286;23;20000;-59
2021/07/09 09:06:30;;;;;;;15.20;13.73;;;;;;;;;;6247337;23;20019;-59
2021/07/09 09:08:55;;;;;;;13.68;12.40;;;;;;;;;;6246989;23;20412;-59
2021/07/09 09:11:21;;;;;;;14.18;12.90;;;;;;;;;;6247074;23;20004;-59
2021/07/09 09:13:47;;;;;;;13.65;12.48;;;;;;;;;;6246513;22;20004;-59
2021/07/09 09:16:14;;;;;;;14.15;12.90;;;;;;;;;;6247106;23;20015;-59
2021/07/09 09:18:42;;;;;;;14.07;12.60;;;;;;;;;;6247068;23;20004;-59
2021/07/09 09:21:09;;;;;;;14.25;12.85;;;;;;;;;;6247089;23;20079;-59
2021/07/09 09:23:52;;;;;;;15.13;13.48;;;;;;;;;;6247029;23;20004;-59
2021/07/09 09:26:36;;;;;;;13.20;11.93;;;;;;;;;;6247173;23;20087;-59
2021/07/09 09:29:02;;;;;;;13.52;12.23;;;;;;;;;;6246871;23;20008;-59
2021/07/09 09:31:32;;;;;;;13.13;11.93;;;;;;;;;;6247003;23;19996;-59
2021/07/09 09:33:57;;;;;;;;;;;;;;;;;;6247613;23;20004;-59
2021/07/09 09:36:23;;;;;;;13.23;11.90;;;;;;;;;;6247554;23;19899;-59
2021/07/09 09:38:49;;;;;;;13.50;11.85;;;;;;;;;;6219984;23;20250;-59
2021/07/09 09:41:18;;;;;;;13.52;12.20;;;;;;;;;;6219926;23;20007;-59
2021/07/09 09:43:44;;;;;;;13.00;11.85;;;;;;;;;;6246988;23;20077;-59
2021/07/09 09:46:14;;;;;;;13.40;12.20;;;;;;;;;;6247000;23;20471;-59
2021/07/09 09:48:45;;;;;;;13.50;12.13;;;;;;;;;;6246781;23;20014;-59
2021/07/09 09:51:29;;;;;;;13.18;11.85;;;;;;;;;;6219995;23;20004;-59
2021/07/09 09:53:56;;;;;;;17.35;11.65;;;;;;;;;;6246721;23;20004;-59
2021/07/09 09:56:30;;;;;;;12.95;11.70;;;;;;;;;;6246693;23;19992;-59
2021/07/09 09:59:14;;;;;;;13.25;11.88;;;;;;;;;;6246738;23;20106;-59
2021/07/09 10:01:54;;;;;;;12.70;11.50;;;;;;;;;;6246771;23;20432;-59
2021/07/09 10:04:20;;;;;;;17.67;11.65;;;;;;;;;;6246774;23;20396;-59
2021/07/09 10:06:46;;;;;;;13.88;12.25;;;;;;;;;;6194785;23;20004;-59
2021/07/09 10:09:13;;;;;;;13.40;12.15;;;;;;;;;;6246708;23;20149;-59
2021/07/09 10:11:39;;;;;;;13.05;11.75;;;;;;;;;;6246671;23;20122;-59
2021/07/09 10:14:09;;;;;;;14.20;12.50;;;;;;;;;;6245834;23;20031;-59
2021/07/09 10:16:35;;;;;;;15.15;12.70;;;;;;;;;;6246611;23;20000;-59
2021/07/09 10:19:01;;;;;;;12.98;11.88;;;;;;;;;;6246428;23;20000;-59
2021/07/09 10:21:28;;;;;;;13.18;11.75;;;;;;;;;;6246594;23;20008;-59
2021/07/09 10:23:53;;;;;;;13.30;12.10;;;;;;;;;;6246278;23;20332;-59
2021/07/09 10:26:19;;;;;;;12.82;11.65;;;;;;;;;;6246342;23;20004;-59
2021/07/09 10:29:20;;;;;;;13.50;12.05;;;;;;;;;;6246328;23;20011;-59
2021/07/09 10:31:47;;;;;;;15.15;12.75;;;;;;;;;;6094875;23;20022;-59
2021/07/09 10:34:26;;;;;;;12.20;11.05;;;;;;;;;;6216447;23;20015;-59
2021/07/09 10:36:53;;;;;;;17.80;12.77;;;;;;;;;;6219562;23;20345;-59
2021/07/09 10:39:31;;;;;;;14.23;12.05;;;;;;;;;;6246158;23;20416;-59
2021/07/09 10:42:16;;;;;;;12.95;11.70;;;;;;;;;;6219443;23;20387;-59
2021/07/09 10:44:58;;;;;;;11.82;10.73;;;;;;;;;;6194373;23;20420;-59
2021/07/09 10:47:34;;;;;;;13.68;12.38;;;;;;;;;;6246206;23;20008;-59
2021/07/09 10:50:00;;;;;;;16.67;10.90;;;;;;;;;;6246346;23;20004;-59
2021/07/09 10:52:46;;;;;;;12.10;10.93;;;;;;;;;;6246354;23;20004;-59
2021/07/09 10:55:27;;;;;;;26.52;13.38;;;;;;;;;;6246111;23;20004;-59
2021/07/09 10:58:08;;;;;;;17.15;13.60;;;;;;;;;;6219094;23;20008;-59
2021/07/09 11:00:47;;;;;;;26.73;16.05;;;;;;;;;;6246066;23;20038;-59
2021/07/09 11:03:31;;;;;;;18.10;13.32;;;;;;;;;;6246142;23;20039;-59
2021/07/09 11:06:04;;;;;;;20.45;12.20;;;;;;;;;;6246106;23;20054;-59
2021/07/09 11:08:29;;;;;;;14.35;10.75;;;;;;;;;;6246009;23;20004;-59
2021/07/09 11:10:58;;;;;;;11.07;9.20;;;;;;;;;;6246134;23;20004;-59
2021/07/09 11:13:39;;;;;;;8.15;7.35;;;;;;;;;;6245717;23;20039;-59
2021/07/09 11:16:23;;;;;;;9.68;7.72;;;;;;;;;;6246373;23;20448;-59
2021/07/09 11:18:50;;;;;;;11.95;8.52;;;;;;;;;;6246027;23;20020;-59
2021/07/09 11:21:16;;;;;;;12.07;8.93;;;;;;;;;;6246118;23;20428;-59
2021/07/09 11:23:52;;;;;;;10.88;8.32;;;;;;;;;;6218640;23;20008;-59
2021/07/09 11:26:18;;;;;;;9.23;8.25;;;;;;;;;;6245890;23;20013;-59
2021/07/09 11:28:44;;;;;;;10.23;8.25;;;;;;;;;;6245593;23;20000;-59
2021/07/09 11:31:10;;;;;;;14.00;8.50;;;;;;;;;;6245630;23;20011;-59
2021/07/09 11:33:35;;;;;;;15.10;9.30;;;;;;;;;;6245837;23;20367;-59
2021/07/09 11:36:15;;;;;;;12.32;10.23;;;;;;;;;;6219142;23;20087;-59
2021/07/09 11:39:01;;;;;;;16.73;11.35;;;;;;;;;;6245890;23;20003;-59
2021/07/09 11:41:26;;;;;;;14.07;10.77;;;;;;;;;;6245924;23;20039;-59
2021/07/09 11:43:51;;;;;;;15.52;11.65;;;;;;;;;;6245865;23;20000;-59
2021/07/09 11:46:17;;;;;;;11.70;10.55;;;;;;;;;;6245874;23;20032;-59
2021/07/09 11:48:43;;;;;;;13.02;10.75;;;;;;;;;;6245606;23;20393;-59
2021/07/09 11:51:08;;;;;;;13.65;10.75;;;;;;;;;;6245699;23;20087;-59
2021/07/09 11:53:34;;;;;;;12.23;10.98;;;;;;;;;;6245721;23;20023;-59
2021/07/09 11:56:12;;;;;;;12.18;10.88;;;;;;;;;;6218936;23;20004;-59
2021/07/09 11:58:38;;;;;;;12.32;11.13;;;;;;;;;;6245922;23;20078;-59
2021/07/09 12:01:13;;;;;;;11.85;10.65;;;;;;;;;;6218724;23;20036;-59
2021/07/09 12:03:47;;;;;;;27.42;22.40;;;;;;;;;;6245751;23;20467;-59
2021/07/09 12:06:21;;;;;;;12.52;11.05;;;;;;;;;;6245752;23;20043;-59
2021/07/09 12:08:56;;;;;;;10.70;9.65;;;;;;;;;;6245577;23;20496;-59
2021/07/09 12:11:22;;;;;;;12.23;9.45;;;;;;;;;;6245647;23;20091;-59
2021/07/09 12:14:02;;;;;;;12.38;11.25;;;;;;;;;;6244904;22;20035;-59
2021/07/09 12:16:28;;;;;;;10.95;9.85;;;;;;;;;;6245640;23;20372;-59
2021/07/09 12:18:53;;;;;;;12.85;11.20;;;;;;;;;;6245498;23;20004;-59
2021/07/09 12:21:19;;;;;;;16.02;14.20;;;;;;;;;;6245818;23;20091;-59
2021/07/09 12:23:44;;;;;;;10.32;9.32;;;;;;;;;;6245790;23;20000;-59
2021/07/09 12:26:10;;;;;;;10.60;9.60;;;;;;;;;;6245686;23;20432;-59
2021/07/09 12:28:36;;;;;;;11.57;9.70;;;;;;;;;;6245720;23;20127;-59
2021/07/09 12:31:02;;;;;;;10.52;9.48;;;;;;;;;;6218921;23;20000;-59
2021/07/09 12:33:33;;;;;;;8.57;7.57;;;;;;;;;;6245663;23;20075;-59
2021/07/09 12:36:03;;;;;;;8.77;7.88;;;;;;;;;;6218822;23;20091;-59
2021/07/09 12:38:30;;;;;;;19.77;10.40;;;;;;;;;;6245571;23;20062;-59
2021/07/09 12:41:00;;;;;;;10.13;7.80;;;;;;;;;;6245988;23;20079;-59
2021/07/09 12:43:27;;;;;;;8.35;6.07;;;;;;;;;;6247433;23;20031;-59
2021/07/09 12:45:57;;;;;;;11.55;7.95;;;;;;;;;;6195543;23;20011;-59
2021/07/09 12:48:31;;;;;;;9.30;6.57;;;;;;;;;;6247329;23;20324;-59
2021/07/09 12:50:56;;;;;;;9.82;5.88;;;;;;;;;;6247356;23;20005;-59
2021/07/09 12:56:49;;;;;;;9.38;7.32;;;;;;;;;;6124239;23;19923;-65
2021/07/09 12:59:19;;;;;;;9.13;6.78;;;;;;;;;;6127798;23;20382;-65
2021/07/09 13:01:45;;;;;;;7.93;7.15;;;;;;;;;;6127816;23;20165;-65
2021/07/09 13:04:21;;;;;;;8.30;7.10;;;;;;;;;;6127619;23;20441;-65
2021/07/09 13:06:46;;;;;;;8.68;7.78;;;;;;;;;;6127679;23;20076;-65
2021/07/09 13:09:15;;;;;;;9.52;7.93;;;;;;;;;;6126112;23;20437;-65
2021/07/09 13:11:45;;;;;;;9.95;8.48;;;;;;;;;;6127536;23;20002;-65
2021/07/09 13:14:19;;;;;;;9.00;7.30;;;;;;;;;;6127701;23;20012;-65
2021/07/09 13:16:49;;;;;;;11.82;6.45;;;;;;;;;;6127630;23;20006;-65
2021/07/09 13:19:26;;;;;;;8.77;5.97;;;;;;;;;;6127637;23;20010;-65
2021/07/09 13:21:53;;;;;;;6.60;5.75;;;;;;;;;;6127691;23;20010;-65
2021/07/09 13:24:18;;;;;;;7.45;5.72;;;;;;;;;;6127471;23;20076;-65
2021/07/09 13:26:46;;;;;;;12.73;5.95;;;;;;;;;;6127486;23;20373;-65
2021/07/09 13:29:22;;;;;;;12.55;8.00;;;;;;;;;;6127579;23;20002;-65
2021/07/09 13:31:49;;;;;;;9.52;6.25;;;;;;;;;;6127447;23;20006;-65
2021/07/09 13:34:15;;;;;;;10.48;8.27;;;;;;;;;;6127467;23;19994;-65
2021/07/09 13:36:41;;;;;;;14.00;10.20;;;;;;;;;;6127331;23;20003;-65
2021/07/09 13:39:06;;;;;;;11.63;8.55;;;;;;;;;;6125861;23;20326;-65
2021/07/09 13:41:32;;;;;;;9.30;5.75;;;;;;;;;;6127342;23;20013;-65
2021/07/09 13:43:57;;;;;;;6.35;5.75;;;;;;;;;;6127323;23;20001;-65
2021/07/09 13:46:23;;;;;;;9.18;6.90;;;;;;;;;;6127322;23;20017;-65
2021/07/09 13:48:54;;;;;;;9.18;7.93;;;;;;;;;;6127143;23;20040;-65
2021/07/09 13:51:20;;;;;;;10.27;8.02;;;;;;;;;;6127131;23;20006;-64
2021/07/09 13:53:46;;;;;;;12.85;7.70;;;;;;;;;;6126267;23;20001;-65
2021/07/09 13:56:11;;;;;;;12.55;7.90;;;;;;;;;;6081557;23;20117;-62
2021/07/09 13:58:37;;;;;;;11.80;8.75;;;;;;;;;;6097835;23;20443;-65
2021/07/09 14:01:03;;;;;;;9.90;7.25;;;;;;;;;;6097918;23;20039;-66
2021/07/09 14:03:29;;;;;;;8.55;6.85;;;;;;;;;;6097832;23;20450;-65
2021/07/09 14:05:54;;;;;;;10.38;6.57;;;;;;;;;;6097933;23;20015;-65
2021/07/09 14:08:21;;;;;;;8.10;6.97;;;;;;;;;;6097744;23;20009;-65
2021/07/09 14:10:49;;;;;;;10.93;6.85;;;;;;;;;;6097878;23;20026;-65
2021/07/09 14:13:14;;;;;;;7.28;6.57;;;;;;;;;;6097855;23;20339;-65
2021/07/09 14:15:40;;;;;;;8.00;6.60;;;;;;;;;;6097415;23;20003;-65
2021/07/09 14:18:06;;;;;;;8.52;7.57;;;;;;;;;;6096213;23;20009;-65
2021/07/09 14:20:31;;;;;;;7.85;6.82;;;;;;;;;;6097731;23;20013;-65
2021/07/09 14:22:57;;;;;;;7.95;7.18;;;;;;;;;;6096829;23;20002;-65
2021/07/09 14:25:22;;;;;;;7.30;6.60;;;;;;;;;;6097734;23;20006;-65
2021/07/09 14:27:48;;;;;;;8.98;6.93;;;;;;;;;;6097244;23;20006;-65
2021/07/09 14:30:14;;;;;;;7.95;6.82;;;;;;;;;;6096809;23;20086;-65